createdAt,value
2023-04-22T00:01:40.246Z,14.15
2023-04-22T00:04:07.666Z,13.98
2023-04-22T00:06:35.694Z,13.32
2023-04-22T00:09:03.506Z,13.00
2023-04-22T00:11:30.810Z,13.27
2023-04-22T00:13:58.202Z,15.38
2023-04-22T00:16:27.246Z,13.18
2023-04-22T00:18:54.535Z,14.05
2023-04-22T00:21:22.055Z,12.85
2023-04-22T00:23:49.408Z,13.52
2023-04-22T00:26:16.712Z,13.10
2023-04-22T00:28:44.072Z,13.30
2023-04-22T00:31:11.414Z,13.43
2023-04-22T00:33:38.746Z,13.23
2023-04-22T00:36:06.364Z,12.88
2023-04-22T00:38:33.956Z,13.65
2023-04-22T00:41:01.348Z,13.13
2023-04-22T00:43:28.869Z,13.70
2023-04-22T00:45:57.488Z,13.15
2023-04-22T00:48:26.845Z,13.18
2023-04-22T00:50:58.644Z,13.77
2023-04-22T00:53:26.216Z,12.80
2023-04-22T00:55:53.865Z,13.52
2023-04-22T00:58:21.869Z,13.80
2023-04-22T01:00:50.319Z,12.90
2023-04-22T01:03:18.297Z,13.90
2023-04-22T01:05:47.424Z,13.00
2023-04-22T01:08:14.945Z,14.18
2023-04-22T01:10:42.791Z,13.05
2023-04-22T01:13:10.424Z,13.30
2023-04-22T01:15:38.123Z,12.50
2023-04-22T01:18:05.647Z,13.35
2023-04-22T01:20:33.163Z,13.95
2023-04-22T01:23:03.214Z,13.48
2023-04-22T01:25:31.147Z,12.07
2023-04-22T01:27:58.581Z,13.82
2023-04-22T01:30:26.309Z,13.38
2023-04-22T01:32:53.890Z,13.35
2023-04-22T01:35:21.530Z,14.20
2023-04-22T01:37:48.808Z,14.10
2023-04-22T01:40:19.705Z,13.93
2023-04-22T01:42:47.217Z,14.30
2023-04-22T01:45:17.618Z,13.87
2023-04-22T01:47:45.726Z,11.75
2023-04-22T01:50:13.036Z,11.18
2023-04-22T01:52:40.499Z,10.85
2023-04-22T01:55:08.619Z,11.02
2023-04-22T01:57:36.456Z,11.82
2023-04-22T02:00:05.687Z,11.27
2023-04-22T02:02:40.077Z,11.30
2023-04-22T02:05:08.287Z,10.48
2023-04-22T02:07:36.518Z,10.75
2023-04-22T02:10:05.598Z,10.63
2023-04-22T02:12:32.980Z,9.68
2023-04-22T02:15:00.298Z,9.60
2023-04-22T02:17:27.881Z,10.20
2023-04-22T02:19:55.429Z,9.80
2023-04-22T02:22:23.917Z,10.20
2023-04-22T02:24:51.750Z,9.40
2023-04-22T02:27:18.991Z,9.80
2023-04-22T02:29:48.491Z,9.48
2023-04-22T02:32:17.979Z,10.88
2023-04-22T02:34:45.305Z,10.68
2023-04-22T02:37:13.703Z,11.07
2023-04-22T02:39:41.082Z,10.50
2023-04-22T02:42:08.677Z,10.77
2023-04-22T02:44:36.101Z,10.18
2023-04-22T02:47:04.245Z,10.82
2023-04-22T02:49:31.508Z,11.05
2023-04-22T02:51:58.896Z,10.95
2023-04-22T02:54:26.228Z,11.43
2023-04-22T02:56:53.525Z,11.25
2023-04-22T02:59:20.941Z,11.60
2023-04-22T03:01:48.612Z,12.50
2023-04-22T03:06:56.314Z,12.45
2023-04-22T03:09:23.639Z,13.82
2023-04-22T03:11:50.892Z,13.20
2023-04-22T03:14:18.251Z,14.05
2023-04-22T03:16:45.591Z,13.50
2023-04-22T03:19:15.099Z,13.93
2023-04-22T03:21:42.445Z,13.98
2023-04-22T03:24:10.079Z,14.82
2023-04-22T03:26:42.993Z,15.18
2023-04-22T03:29:10.287Z,15.25
2023-04-22T03:31:37.814Z,15.25
2023-04-22T03:34:05.250Z,16.50
2023-04-22T03:36:33.210Z,14.77
2023-04-22T03:39:00.755Z,15.48
2023-04-22T03:41:29.264Z,15.40
2023-04-22T03:43:56.927Z,14.02
2023-04-22T03:46:25.480Z,15.80
2023-04-22T03:49:00.724Z,14.90
2023-04-22T03:51:32.321Z,15.40
2023-04-22T03:54:03.751Z,14.63
2023-04-22T03:56:34.287Z,15.85
2023-04-22T03:59:02.063Z,15.82
2023-04-22T04:01:29.689Z,15.80
2023-04-22T04:04:00.805Z,15.63
2023-04-22T04:06:36.093Z,15.40
2023-04-22T04:09:05.602Z,15.70
2023-04-22T04:11:33.872Z,15.77
2023-04-22T04:14:03.514Z,15.52
2023-04-22T04:19:14.456Z,16.08
2023-04-22T04:21:42.312Z,16.60
2023-04-22T04:24:09.981Z,15.00
2023-04-22T04:26:43.413Z,16.65
2023-04-22T04:29:15.879Z,16.42
2023-04-22T04:31:49.546Z,16.75
2023-04-22T04:34:17.711Z,16.45
2023-04-22T04:36:46.543Z,16.45
2023-04-22T04:39:29.182Z,17.02
2023-04-22T04:41:59.013Z,17.08
2023-04-22T04:44:28.209Z,17.33
2023-04-22T04:46:58.094Z,16.92
2023-04-22T04:49:26.628Z,18.40
2023-04-22T04:51:58.731Z,19.05
2023-04-22T04:54:27.299Z,19.80
2023-04-22T04:56:55.348Z,20.05
2023-04-22T04:59:22.906Z,19.48
2023-04-22T05:01:50.551Z,19.92
2023-04-22T05:04:18.160Z,21.48
2023-04-22T05:06:45.696Z,19.38
2023-04-22T05:09:15.105Z,21.15
2023-04-22T05:11:44.631Z,22.17
2023-04-22T05:14:16.947Z,22.50
2023-04-22T05:16:46.367Z,21.95
2023-04-22T05:19:14.564Z,21.85
2023-04-22T05:21:43.002Z,23.40
2023-04-22T05:24:10.446Z,23.55
2023-04-22T05:26:37.979Z,23.10
2023-04-22T05:29:11.942Z,22.25
2023-04-22T05:31:39.538Z,23.10
2023-04-22T05:34:07.921Z,23.55
2023-04-22T05:36:35.673Z,23.17
2023-04-22T05:39:03.110Z,23.25
2023-04-22T05:41:32.545Z,23.30
2023-04-22T05:44:01.060Z,24.63
2023-04-22T05:46:29.989Z,23.58
2023-04-22T05:48:57.670Z,24.95
2023-04-22T05:51:43.607Z,24.67
2023-04-22T05:54:13.608Z,24.95
2023-04-22T05:56:41.237Z,26.70
2023-04-22T05:59:08.786Z,26.15
2023-04-22T06:01:39.305Z,25.60
2023-04-22T06:04:10.142Z,25.58
2023-04-22T06:06:38.008Z,25.88
2023-04-22T06:09:07.096Z,26.15
2023-04-22T06:11:34.462Z,25.60
2023-04-22T06:14:01.739Z,25.50
2023-04-22T06:16:29.670Z,26.20
2023-04-22T06:18:56.898Z,26.23
2023-04-22T06:21:25.231Z,25.65
2023-04-22T06:23:52.559Z,25.88
2023-04-22T06:26:22.507Z,27.13
2023-04-22T06:28:49.914Z,27.13
2023-04-22T06:31:21.230Z,27.23
2023-04-22T06:33:49.142Z,27.17
2023-04-22T06:36:16.541Z,26.02
2023-04-22T06:41:35.124Z,25.67
2023-04-22T06:44:09.685Z,26.02
2023-04-22T06:46:50.456Z,26.95
2023-04-22T06:49:38.736Z,26.42
2023-04-22T06:52:29.176Z,26.98
2023-04-22T06:54:58.945Z,26.58
2023-04-22T06:57:26.191Z,26.58
2023-04-22T06:59:53.451Z,26.70
2023-04-22T07:02:22.198Z,27.17
2023-04-22T07:04:50.448Z,26.20
2023-04-22T07:07:17.854Z,26.20
2023-04-22T07:09:45.760Z,26.95
2023-04-22T07:12:13.171Z,26.73
2023-04-22T07:14:47.010Z,27.40
2023-04-22T07:17:14.385Z,27.17
2023-04-22T07:19:42.253Z,25.77
2023-04-22T07:22:09.833Z,25.35
2023-04-22T07:24:37.549Z,24.70
2023-04-22T07:27:04.851Z,25.70
2023-04-22T07:29:32.058Z,24.65
2023-04-22T07:32:00.584Z,25.65
2023-04-22T07:34:27.887Z,24.73
2023-04-22T07:36:55.363Z,25.30
2023-04-22T07:39:22.823Z,25.27
2023-04-22T07:41:51.208Z,24.83
2023-04-22T07:44:21.555Z,24.33
2023-04-22T07:46:50.333Z,24.55
2023-04-22T07:49:17.638Z,25.13
2023-04-22T07:51:44.962Z,24.75
2023-04-22T07:54:12.414Z,23.05
2023-04-22T07:56:39.678Z,23.65
2023-04-22T07:59:06.948Z,22.75
2023-04-22T08:01:34.283Z,22.98
2023-04-22T08:04:02.005Z,24.90
2023-04-22T08:06:29.497Z,23.00
2023-04-22T08:08:56.820Z,23.52
2023-04-22T08:11:24.261Z,23.40
2023-04-22T08:13:51.784Z,23.33
2023-04-22T08:16:19.479Z,23.00
2023-04-22T08:18:46.858Z,23.02
2023-04-22T08:21:14.706Z,22.30
2023-04-22T08:23:41.986Z,23.08
2023-04-22T08:26:15.045Z,22.90
2023-04-22T08:28:42.704Z,22.70
2023-04-22T08:31:11.912Z,23.08
2023-04-22T08:33:42.379Z,24.43
2023-04-22T08:36:11.127Z,22.98
2023-04-22T08:38:38.410Z,21.77
2023-04-22T08:41:06.146Z,20.98
2023-04-22T08:43:34.403Z,20.20
2023-04-22T08:46:02.298Z,21.15
2023-04-22T08:48:29.787Z,16.60
2023-04-22T08:50:59.006Z,17.98
2023-04-22T08:53:26.990Z,16.42
2023-04-22T08:55:56.442Z,15.90
2023-04-22T08:58:24.238Z,16.38
2023-04-22T09:00:51.999Z,17.05
2023-04-22T09:03:19.670Z,15.95
2023-04-22T09:05:47.503Z,15.25
2023-04-22T09:08:14.906Z,15.70
2023-04-22T09:10:42.335Z,15.43
2023-04-22T09:13:09.946Z,15.60
2023-04-22T09:15:37.510Z,15.75
2023-04-22T09:18:05.644Z,15.18
2023-04-22T09:20:33.113Z,14.77
2023-04-22T09:23:05.076Z,14.40
2023-04-22T09:25:35.189Z,14.25
2023-04-22T09:28:03.302Z,13.73
2023-04-22T09:30:32.729Z,12.13
2023-04-22T09:33:04.266Z,11.50
2023-04-22T09:35:33.643Z,10.70
2023-04-22T09:38:07.998Z,10.00
2023-04-22T09:40:36.069Z,11.27
2023-04-22T09:43:06.375Z,11.10
2023-04-22T09:45:41.843Z,10.10
2023-04-22T09:48:14.323Z,9.48
2023-04-22T09:50:50.170Z,9.23
2023-04-22T09:53:19.433Z,8.32
2023-04-22T09:55:51.828Z,8.80
2023-04-22T09:58:20.849Z,8.85
2023-04-22T10:00:51.056Z,8.38
2023-04-22T10:03:19.205Z,8.15
2023-04-22T10:05:46.740Z,7.95
2023-04-22T10:08:15.301Z,8.50
2023-04-22T10:10:43.120Z,7.82
2023-04-22T10:13:10.693Z,8.52
2023-04-22T10:15:57.308Z,8.70
2023-04-22T10:18:26.877Z,8.98
2023-04-22T10:20:56.728Z,8.38
2023-04-22T10:23:24.871Z,8.80
2023-04-22T10:25:54.693Z,10.13
2023-04-22T10:28:23.709Z,9.55
2023-04-22T10:30:51.257Z,9.88
2023-04-22T10:33:21.768Z,9.82
2023-04-22T10:36:21.622Z,9.88
2023-04-22T10:38:54.656Z,8.95
2023-04-22T10:41:35.571Z,9.85
2023-04-22T10:44:07.667Z,9.20
2023-04-22T10:46:37.095Z,9.80
2023-04-22T10:49:13.223Z,9.18
2023-04-22T10:52:00.160Z,9.43
2023-04-22T10:54:29.567Z,9.10
2023-04-22T10:57:17.067Z,9.40
2023-04-22T10:59:49.434Z,10.23
2023-04-22T11:02:18.613Z,11.52
2023-04-22T11:04:46.368Z,10.38
2023-04-22T11:07:26.396Z,11.40
2023-04-22T11:10:00.673Z,10.43
2023-04-22T11:12:42.130Z,10.95
2023-04-22T11:15:11.531Z,10.88
2023-04-22T11:17:40.362Z,11.00
2023-04-22T11:20:08.638Z,11.40
2023-04-22T11:22:38.490Z,11.00
2023-04-22T11:25:06.635Z,11.98
2023-04-22T11:27:33.859Z,11.65
2023-04-22T11:30:01.176Z,11.13
2023-04-22T11:32:29.507Z,11.15
2023-04-22T11:34:57.539Z,12.13
2023-04-22T11:37:24.958Z,11.80
2023-04-22T11:40:16.899Z,11.98
2023-04-22T11:42:40.002Z,11.60
2023-04-22T11:45:08.529Z,12.15
2023-04-22T11:47:36.240Z,12.20
2023-04-22T11:50:07.117Z,12.13
2023-04-22T11:52:53.515Z,12.27
2023-04-22T11:55:21.122Z,12.38
2023-04-22T11:58:00.127Z,11.75
2023-04-22T12:00:33.040Z,11.75
2023-04-22T12:03:21.706Z,11.75
2023-04-22T12:05:59.396Z,11.75
2023-04-22T12:08:37.084Z,12.43
2023-04-22T12:11:06.342Z,12.90
2023-04-22T12:13:42.373Z,12.45
2023-04-22T12:16:14.089Z,13.95
2023-04-22T12:18:48.849Z,12.27
2023-04-22T12:21:20.171Z,12.68
2023-04-22T12:23:59.067Z,13.15
2023-04-22T12:26:27.882Z,14.40
2023-04-22T12:28:58.051Z,13.77
2023-04-22T12:31:26.164Z,15.02
2023-04-22T12:33:53.961Z,15.05
2023-04-22T12:36:21.550Z,15.10
2023-04-22T12:38:49.303Z,15.35
2023-04-22T12:41:16.690Z,13.98
2023-04-22T12:43:44.019Z,14.15
2023-04-22T12:46:11.483Z,15.07
2023-04-22T12:48:38.858Z,14.68
2023-04-22T12:51:06.981Z,14.30
2023-04-22T12:53:34.780Z,13.68
2023-04-22T12:56:02.361Z,12.40
2023-04-22T12:58:30.005Z,12.90
2023-04-22T13:00:59.792Z,11.98
2023-04-22T13:03:27.723Z,12.43
2023-04-22T13:05:55.038Z,12.18
2023-04-22T13:08:22.477Z,12.13
2023-04-22T13:10:49.837Z,10.30
2023-04-22T13:13:19.403Z,10.43
2023-04-22T13:15:53.859Z,10.43
2023-04-22T13:18:22.748Z,9.57
2023-04-22T13:20:50.143Z,9.05
2023-04-22T13:23:17.652Z,8.07
2023-04-22T13:25:44.999Z,7.38
2023-04-22T13:28:12.392Z,8.15
2023-04-22T13:30:40.148Z,8.45
2023-04-22T13:33:07.627Z,7.05
2023-04-22T13:35:36.107Z,7.38
2023-04-22T13:38:03.959Z,7.20
2023-04-22T13:40:31.237Z,7.70
2023-04-22T13:42:58.776Z,6.93
2023-04-22T13:45:26.225Z,6.47
2023-04-22T13:47:54.160Z,6.55
2023-04-22T13:50:23.264Z,6.28
2023-04-22T13:52:50.623Z,6.07
2023-04-22T13:55:18.029Z,6.40
2023-04-22T13:57:45.817Z,5.15
2023-04-22T14:00:14.014Z,5.55
2023-04-22T14:02:41.776Z,5.55
2023-04-22T14:05:10.531Z,5.25
2023-04-22T14:07:38.011Z,4.90
2023-04-22T14:10:08.428Z,5.40
2023-04-22T14:12:35.732Z,4.97
2023-04-22T14:15:03.222Z,5.07
2023-04-22T14:17:31.005Z,4.43
2023-04-22T14:20:00.124Z,4.93
2023-04-22T14:22:27.700Z,4.80
2023-04-22T14:24:55.652Z,4.88
2023-04-22T14:27:23.132Z,5.05
2023-04-22T14:29:52.457Z,4.93
2023-04-22T14:32:20.370Z,5.80
2023-04-22T14:34:48.445Z,5.43
2023-04-22T14:37:15.828Z,5.70
2023-04-22T14:39:43.109Z,5.45
2023-04-22T14:42:10.996Z,4.97
2023-04-22T14:44:38.236Z,5.03
2023-04-22T14:47:06.138Z,5.30
2023-04-22T14:49:33.503Z,4.78
2023-04-22T14:52:01.497Z,5.47
2023-04-22T14:54:29.006Z,4.40
2023-04-22T14:56:56.541Z,5.07
2023-04-22T14:59:23.780Z,4.47
2023-04-22T15:01:51.180Z,4.63
2023-04-22T15:04:19.442Z,4.13
2023-04-22T15:06:46.999Z,4.25
2023-04-22T15:09:14.365Z,3.78
2023-04-22T15:11:41.649Z,4.22
2023-04-22T15:14:08.965Z,3.88
2023-04-22T15:16:36.359Z,4.18
2023-04-22T15:19:03.655Z,3.80
2023-04-22T15:21:32.002Z,4.18
2023-04-22T15:23:59.246Z,3.75
2023-04-22T15:26:26.533Z,3.40
2023-04-22T15:28:53.800Z,3.33
2023-04-22T15:31:21.459Z,3.15
2023-04-22T15:33:48.783Z,3.00
2023-04-22T15:36:19.862Z,2.92
2023-04-22T15:38:47.332Z,3.20
2023-04-22T15:41:15.686Z,2.95
2023-04-22T15:43:43.046Z,3.15
2023-04-22T15:46:10.395Z,2.80
2023-04-22T15:48:37.732Z,2.78
2023-04-22T15:51:05.303Z,3.25
2023-04-22T15:53:32.744Z,2.90
2023-04-22T15:56:00.015Z,2.85
2023-04-22T15:58:28.996Z,2.97
2023-04-22T16:01:07.693Z,3.20
2023-04-22T16:03:45.167Z,3.22
2023-04-22T16:06:12.763Z,3.00
2023-04-22T16:08:40.050Z,3.50
2023-04-22T16:11:07.452Z,3.60
2023-04-22T16:13:34.708Z,3.65
2023-04-22T16:16:02.050Z,3.47
2023-04-22T16:18:29.427Z,3.72
2023-04-22T16:20:56.823Z,3.55
2023-04-22T16:23:24.076Z,3.53
2023-04-22T16:25:51.493Z,3.60
2023-04-22T16:28:19.041Z,3.30
2023-04-22T16:30:46.909Z,3.83
2023-04-22T16:33:14.886Z,3.92
2023-04-22T16:35:42.622Z,3.97
2023-04-22T16:38:10.260Z,3.75
2023-04-22T16:40:38.710Z,3.95
2023-04-22T16:43:07.228Z,3.70
2023-04-22T16:45:35.601Z,3.42
2023-04-22T16:48:03.444Z,3.25
2023-04-22T16:50:30.727Z,2.80
2023-04-22T16:52:58.136Z,3.08
2023-04-22T16:55:25.423Z,3.40
2023-04-22T16:57:52.893Z,3.50
2023-04-22T17:00:20.948Z,3.70
2023-04-22T17:02:48.369Z,3.28
2023-04-22T17:05:15.820Z,3.25
2023-04-22T17:07:43.199Z,3.42
2023-04-22T17:10:10.716Z,2.90
2023-04-22T17:12:37.996Z,2.83
2023-04-22T17:15:06.335Z,3.13
2023-04-22T17:17:33.759Z,3.10
2023-04-22T17:20:01.207Z,3.40
2023-04-22T17:22:28.442Z,3.33
2023-04-22T17:24:57.587Z,4.95
2023-04-22T17:27:25.040Z,3.42
2023-04-22T17:29:52.376Z,3.60
2023-04-22T17:32:20.197Z,3.15
2023-04-22T17:34:47.838Z,3.13
2023-04-22T17:37:15.214Z,3.22
2023-04-22T17:39:42.814Z,3.40
2023-04-22T17:42:10.137Z,3.28
2023-04-22T17:44:37.795Z,3.38
2023-04-22T17:47:07.143Z,2.95
2023-04-22T17:49:34.902Z,3.47
2023-04-22T17:52:02.209Z,3.50
2023-04-22T17:54:29.570Z,4.10
2023-04-22T17:56:57.054Z,5.30
2023-04-22T17:59:24.385Z,4.00
2023-04-22T18:01:51.698Z,4.00
2023-04-22T18:04:19.412Z,3.90
2023-04-22T18:06:47.007Z,3.40
2023-04-22T18:09:14.329Z,3.13
2023-04-22T18:11:41.576Z,3.05
2023-04-22T18:14:08.977Z,3.92
2023-04-22T18:16:36.223Z,3.97
2023-04-22T18:19:06.646Z,3.30
2023-04-22T18:21:36.121Z,3.83
2023-04-22T18:24:04.548Z,4.03
2023-04-22T18:26:32.317Z,4.30
2023-04-22T18:28:59.618Z,4.03
2023-04-22T18:31:27.098Z,4.40
2023-04-22T18:33:54.409Z,4.45
2023-04-22T18:36:21.676Z,4.07
2023-04-22T18:38:48.967Z,5.18
2023-04-22T18:41:16.477Z,4.70
2023-04-22T18:43:43.950Z,4.72
2023-04-22T18:46:11.206Z,4.60
2023-04-22T18:48:38.552Z,3.83
2023-04-22T18:51:06.112Z,4.40
2023-04-22T18:53:34.383Z,8.30
2023-04-22T18:56:02.193Z,4.82
2023-04-22T18:58:29.691Z,4.60
2023-04-22T19:00:57.048Z,4.55
2023-04-22T19:03:27.708Z,5.70
2023-04-22T19:05:55.140Z,5.88
2023-04-22T19:08:22.448Z,5.55
2023-04-22T19:10:49.667Z,4.50
2023-04-22T19:13:29.089Z,4.32
2023-04-22T19:15:57.973Z,4.75
2023-04-22T19:18:26.250Z,4.47
2023-04-22T19:20:54.044Z,5.13
2023-04-22T19:23:21.876Z,6.97
2023-04-22T19:25:49.231Z,8.55
2023-04-22T19:28:16.425Z,7.43
2023-04-22T19:30:43.696Z,7.57
2023-04-22T19:33:11.310Z,7.82
2023-04-22T19:35:38.544Z,9.07
2023-04-22T19:38:05.950Z,7.45
2023-04-22T19:40:33.387Z,6.70
2023-04-22T19:43:00.861Z,5.70
2023-04-22T19:45:29.918Z,5.30
2023-04-22T19:47:57.587Z,6.38
2023-04-22T19:50:25.045Z,5.85
2023-04-22T19:52:57.519Z,6.68
2023-04-22T19:55:25.167Z,6.15
2023-04-22T19:57:52.768Z,6.13
2023-04-22T20:00:20.389Z,6.05
2023-04-22T20:02:47.983Z,6.03
2023-04-22T20:05:18.292Z,5.75
2023-04-22T20:10:13.921Z,5.07
2023-04-22T20:12:41.615Z,5.40
2023-04-22T20:15:09.641Z,5.88
2023-04-22T20:17:39.176Z,5.47
2023-04-22T20:20:11.718Z,4.85
2023-04-22T20:22:41.449Z,5.70
2023-04-22T20:25:12.405Z,5.55
2023-04-22T20:27:40.511Z,5.10
2023-04-22T20:30:08.706Z,4.50
2023-04-22T20:32:36.733Z,4.60
2023-04-22T20:35:05.834Z,4.22
2023-04-22T20:37:36.039Z,3.95
2023-04-22T20:42:36.882Z,4.28
2023-04-22T20:45:05.448Z,3.97
2023-04-22T20:47:33.056Z,3.78
2023-04-22T20:50:00.633Z,3.53
2023-04-22T20:52:27.931Z,3.40
2023-04-22T20:54:56.667Z,2.72
2023-04-22T20:57:24.176Z,3.10
2023-04-22T20:59:51.527Z,3.35
2023-04-22T21:02:20.411Z,3.75
2023-04-22T21:04:48.312Z,3.50
2023-04-22T21:07:16.851Z,3.40
2023-04-22T21:09:44.300Z,3.30
2023-04-22T21:12:11.984Z,3.72
2023-04-22T21:14:41.699Z,4.05
2023-04-22T21:17:21.438Z,3.50
2023-04-22T21:19:50.524Z,3.25
2023-04-22T21:22:21.452Z,3.50
2023-04-22T21:24:49.694Z,4.10
2023-04-22T21:27:18.158Z,5.57
2023-04-22T21:29:46.677Z,4.63
2023-04-22T21:32:14.354Z,4.25
2023-04-22T21:34:42.181Z,3.35
2023-04-22T21:37:09.948Z,3.13
2023-04-22T21:39:37.514Z,3.90
2023-04-22T21:42:07.948Z,3.00
2023-04-22T21:44:37.208Z,3.40
2023-04-22T21:47:05.542Z,3.40
2023-04-22T21:49:33.207Z,5.03
2023-04-22T21:52:01.085Z,2.63
2023-04-22T21:54:28.502Z,2.85
2023-04-22T21:56:56.938Z,2.72
2023-04-22T21:59:24.851Z,2.95
2023-04-22T22:01:52.418Z,2.67
2023-04-22T22:04:20.081Z,2.53
2023-04-22T22:06:47.557Z,2.67
2023-04-22T22:09:15.494Z,2.65
2023-04-22T22:11:42.779Z,2.67
2023-04-22T22:14:10.186Z,2.97
2023-04-22T22:16:38.411Z,2.40
2023-04-22T22:19:06.461Z,2.50
2023-04-22T22:21:33.938Z,3.03
2023-04-22T22:24:01.262Z,3.05
2023-04-22T22:26:29.237Z,2.80
2023-04-22T22:28:57.517Z,3.03
2023-04-22T22:31:24.807Z,3.08
2023-04-22T22:33:52.232Z,4.03
2023-04-22T22:36:19.758Z,3.40
2023-04-22T22:38:47.040Z,3.90
2023-04-22T22:41:14.302Z,3.88
2023-04-22T22:43:41.548Z,4.40
2023-04-22T22:46:09.009Z,8.50
2023-04-22T22:48:36.901Z,4.72
2023-04-22T22:51:04.399Z,3.78
2023-04-22T22:53:33.845Z,3.55
2023-04-22T22:56:01.120Z,3.08
2023-04-22T22:58:28.399Z,3.13
2023-04-22T23:00:56.165Z,3.35
2023-04-22T23:03:23.604Z,3.03
2023-04-22T23:05:51.133Z,3.35
2023-04-22T23:08:18.521Z,2.65
2023-04-22T23:10:45.774Z,2.45
2023-04-22T23:13:13.011Z,2.42
2023-04-22T23:15:40.445Z,3.00
2023-04-22T23:18:09.122Z,2.40
2023-04-22T23:20:36.995Z,3.28
2023-04-22T23:23:04.713Z,2.35
2023-04-22T23:25:32.189Z,2.28
2023-04-22T23:27:59.848Z,2.45
2023-04-22T23:30:27.334Z,7.03
2023-04-22T23:32:57.656Z,3.17
2023-04-22T23:35:27.528Z,2.53
2023-04-22T23:37:55.066Z,2.10
2023-04-22T23:40:22.288Z,2.78
2023-04-22T23:42:49.840Z,2.65
2023-04-22T23:45:17.135Z,2.35
2023-04-22T23:47:44.550Z,2.50
2023-04-22T23:50:14.014Z,2.20
2023-04-22T23:52:42.632Z,2.50
2023-04-22T23:55:11.339Z,2.20
2023-04-22T23:57:38.804Z,2.53
